sensor_id;sensor_type;location;lat;lon;timestamp;P1;durP1;ratioP1;P2;durP2;ratioP2
4650;SDS011;2338;49.602;8.722;2023-08-31T00:00:02;5.77;;;4.90;;
4650;SDS011;2338;49.602;8.722;2023-08-31T00:02:48;6.03;;;4.70;;
4650;SDS011;2338;49.602;8.722;2023-08-31T00:05:36;6.70;;;5.03;;
4650;SDS011;2338;49.602;8.722;2023-08-31T00:08:24;8.87;;;5.30;;
4650;SDS011;2338;49.602;8.722;2023-08-31T00:11:09;7.23;;;5.53;;
4650;SDS011;2338;49.602;8.722;2023-08-31T00:13:56;7.60;;;4.93;;
4650;SDS011;2338;49.602;8.722;2023-08-31T00:16:42;6.37;;;4.60;;
4650;SDS011;2338;49.602;8.722;2023-08-31T00:19:29;9.10;;;5.60;;
4650;SDS011;2338;49.602;8.722;2023-08-31T00:22:15;7.70;;;4.47;;
4650;SDS011;2338;49.602;8.722;2023-08-31T00:25:01;7.33;;;5.00;;
4650;SDS011;2338;49.602;8.722;2023-08-31T00:27:46;7.40;;;4.80;;
4650;SDS011;2338;49.602;8.722;2023-08-31T00:30:33;4.97;;;4.47;;
4650;SDS011;2338;49.602;8.722;2023-08-31T00:33:19;8.40;;;5.30;;
4650;SDS011;2338;49.602;8.722;2023-08-31T00:36:05;5.60;;;4.90;;
4650;SDS011;2338;49.602;8.722;2023-08-31T00:38:51;7.37;;;5.40;;
4650;SDS011;2338;49.602;8.722;2023-08-31T00:41:37;6.50;;;4.97;;
4650;SDS011;2338;49.602;8.722;2023-08-31T00:44:23;7.83;;;4.90;;
4650;SDS011;2338;49.602;8.722;2023-08-31T00:47:10;7.00;;;5.03;;
4650;SDS011;2338;49.602;8.722;2023-08-31T00:49:57;5.70;;;5.03;;
4650;SDS011;2338;49.602;8.722;2023-08-31T00:52:45;13.57;;;5.07;;
4650;SDS011;2338;49.602;8.722;2023-08-31T00:55:31;7.97;;;5.10;;
4650;SDS011;2338;49.602;8.722;2023-08-31T00:58:17;7.17;;;4.73;;
4650;SDS011;2338;49.602;8.722;2023-08-31T01:01:04;8.43;;;5.33;;
4650;SDS011;2338;49.602;8.722;2023-08-31T01:04:02;7.77;;;4.77;;
4650;SDS011;2338;49.602;8.722;2023-08-31T01:07:02;5.57;;;5.00;;
4650;SDS011;2338;49.602;8.722;2023-08-31T01:09:57;10.50;;;5.23;;
4650;SDS011;2338;49.602;8.722;2023-08-31T01:12:52;6.27;;;5.03;;
4650;SDS011;2338;49.602;8.722;2023-08-31T01:15:45;12.87;;;4.70;;
4650;SDS011;2338;49.602;8.722;2023-08-31T01:18:35;6.40;;;5.20;;
4650;SDS011;2338;49.602;8.722;2023-08-31T01:21:27;21.57;;;5.03;;
4650;SDS011;2338;49.602;8.722;2023-08-31T01:24:21;14.77;;;5.27;;
4650;SDS011;2338;49.602;8.722;2023-08-31T01:27:07;12.67;;;4.30;;
4650;SDS011;2338;49.602;8.722;2023-08-31T01:29:54;6.63;;;4.33;;
4650;SDS011;2338;49.602;8.722;2023-08-31T01:32:42;6.07;;;4.60;;
4650;SDS011;2338;49.602;8.722;2023-08-31T01:35:30;5.50;;;4.20;;
4650;SDS011;2338;49.602;8.722;2023-08-31T01:38:23;6.50;;;4.77;;
4650;SDS011;2338;49.602;8.722;2023-08-31T01:41:14;14.43;;;5.10;;
4650;SDS011;2338;49.602;8.722;2023-08-31T01:44:04;6.20;;;4.40;;
4650;SDS011;2338;49.602;8.722;2023-08-31T01:46:51;11.57;;;4.30;;
4650;SDS011;2338;49.602;8.722;2023-08-31T01:49:38;8.47;;;4.40;;
4650;SDS011;2338;49.602;8.722;2023-08-31T01:52:25;4.87;;;4.00;;
4650;SDS011;2338;49.602;8.722;2023-08-31T01:55:11;6.90;;;4.40;;
4650;SDS011;2338;49.602;8.722;2023-08-31T01:58:00;9.90;;;4.90;;
4650;SDS011;2338;49.602;8.722;2023-08-31T02:00:46;12.00;;;4.70;;
4650;SDS011;2338;49.602;8.722;2023-08-31T02:03:32;10.83;;;5.43;;
4650;SDS011;2338;49.602;8.722;2023-08-31T02:06:17;9.00;;;4.90;;
4650;SDS011;2338;49.602;8.722;2023-08-31T02:09:03;6.87;;;5.40;;
4650;SDS011;2338;49.602;8.722;2023-08-31T02:11:49;7.40;;;4.87;;
4650;SDS011;2338;49.602;8.722;2023-08-31T02:14:36;9.00;;;5.10;;
4650;SDS011;2338;49.602;8.722;2023-08-31T02:17:22;7.17;;;4.20;;
4650;SDS011;2338;49.602;8.722;2023-08-31T02:20:09;5.97;;;4.70;;
4650;SDS011;2338;49.602;8.722;2023-08-31T02:22:55;6.33;;;4.43;;
4650;SDS011;2338;49.602;8.722;2023-08-31T02:25:41;6.03;;;4.23;;
4650;SDS011;2338;49.602;8.722;2023-08-31T02:28:27;8.37;;;4.33;;
4650;SDS011;2338;49.602;8.722;2023-08-31T02:31:16;5.73;;;4.30;;
4650;SDS011;2338;49.602;8.722;2023-08-31T02:34:02;5.20;;;4.70;;
4650;SDS011;2338;49.602;8.722;2023-08-31T02:36:48;6.53;;;4.37;;
4650;SDS011;2338;49.602;8.722;2023-08-31T02:39:34;5.50;;;4.70;;
4650;SDS011;2338;49.602;8.722;2023-08-31T02:42:19;9.30;;;5.10;;
4650;SDS011;2338;49.602;8.722;2023-08-31T02:45:05;12.20;;;5.50;;
4650;SDS011;2338;49.602;8.722;2023-08-31T02:47:52;6.27;;;4.63;;
4650;SDS011;2338;49.602;8.722;2023-08-31T02:50:38;7.57;;;5.27;;
4650;SDS011;2338;49.602;8.722;2023-08-31T02:53:24;10.63;;;5.97;;
4650;SDS011;2338;49.602;8.722;2023-08-31T02:56:10;8.17;;;5.03;;
4650;SDS011;2338;49.602;8.722;2023-08-31T02:58:55;9.20;;;5.87;;
4650;SDS011;2338;49.602;8.722;2023-08-31T03:01:41;7.67;;;5.53;;
4650;SDS011;2338;49.602;8.722;2023-08-31T03:04:31;9.57;;;6.40;;
4650;SDS011;2338;49.602;8.722;2023-08-31T03:07:17;8.90;;;6.40;;
4650;SDS011;2338;49.602;8.722;2023-08-31T03:10:02;12.20;;;6.63;;
4650;SDS011;2338;49.602;8.722;2023-08-31T03:12:48;10.10;;;6.23;;
4650;SDS011;2338;49.602;8.722;2023-08-31T03:15:34;13.93;;;5.90;;
4650;SDS011;2338;49.602;8.722;2023-08-31T03:18:19;7.30;;;5.87;;
4650;SDS011;2338;49.602;8.722;2023-08-31T03:21:07;7.83;;;5.70;;
4650;SDS011;2338;49.602;8.722;2023-08-31T03:23:53;7.63;;;6.70;;
4650;SDS011;2338;49.602;8.722;2023-08-31T03:26:39;10.17;;;5.60;;
4650;SDS011;2338;49.602;8.722;2023-08-31T03:29:24;8.70;;;6.40;;
4650;SDS011;2338;49.602;8.722;2023-08-31T03:32:12;7.60;;;6.10;;
4650;SDS011;2338;49.602;8.722;2023-08-31T03:34:58;8.97;;;6.07;;
4650;SDS011;2338;49.602;8.722;2023-08-31T03:37:47;9.67;;;5.50;;
4650;SDS011;2338;49.602;8.722;2023-08-31T03:40:33;16.20;;;6.70;;
4650;SDS011;2338;49.602;8.722;2023-08-31T03:43:19;7.37;;;6.13;;
4650;SDS011;2338;49.602;8.722;2023-08-31T03:46:04;10.77;;;6.40;;
4650;SDS011;2338;49.602;8.722;2023-08-31T03:48:50;11.60;;;6.10;;
4650;SDS011;2338;49.602;8.722;2023-08-31T03:51:36;10.37;;;6.67;;
4650;SDS011;2338;49.602;8.722;2023-08-31T03:54:23;8.20;;;5.77;;
4650;SDS011;2338;49.602;8.722;2023-08-31T03:57:08;10.57;;;6.63;;
4650;SDS011;2338;49.602;8.722;2023-08-31T03:59:54;7.57;;;5.87;;
4650;SDS011;2338;49.602;8.722;2023-08-31T04:02:41;7.93;;;6.03;;
4650;SDS011;2338;49.602;8.722;2023-08-31T04:05:27;10.40;;;7.00;;
4650;SDS011;2338;49.602;8.722;2023-08-31T04:08:13;8.03;;;6.20;;
4650;SDS011;2338;49.602;8.722;2023-08-31T04:11:00;10.30;;;7.10;;
4650;SDS011;2338;49.602;8.722;2023-08-31T04:13:47;11.23;;;6.03;;
4650;SDS011;2338;49.602;8.722;2023-08-31T04:16:32;10.97;;;6.70;;
4650;SDS011;2338;49.602;8.722;2023-08-31T04:19:18;9.10;;;6.13;;
4650;SDS011;2338;49.602;8.722;2023-08-31T04:22:04;8.07;;;5.53;;
4650;SDS011;2338;49.602;8.722;2023-08-31T04:24:49;8.17;;;6.07;;
4650;SDS011;2338;49.602;8.722;2023-08-31T04:27:38;12.10;;;5.90;;
4650;SDS011;2338;49.602;8.722;2023-08-31T04:30:24;7.43;;;6.43;;
4650;SDS011;2338;49.602;8.722;2023-08-31T04:33:10;7.87;;;6.30;;
4650;SDS011;2338;49.602;8.722;2023-08-31T04:35:56;7.63;;;5.90;;
4650;SDS011;2338;49.602;8.722;2023-08-31T04:38:42;10.10;;;6.33;;
4650;SDS011;2338;49.602;8.722;2023-08-31T04:41:27;14.47;;;6.07;;
4650;SDS011;2338;49.602;8.722;2023-08-31T04:44:14;7.27;;;5.60;;
4650;SDS011;2338;49.602;8.722;2023-08-31T04:47:00;40.37;;;6.30;;
4650;SDS011;2338;49.602;8.722;2023-08-31T04:49:46;8.03;;;5.67;;
4650;SDS011;2338;49.602;8.722;2023-08-31T04:52:32;7.27;;;5.13;;
4650;SDS011;2338;49.602;8.722;2023-08-31T04:55:18;8.83;;;5.40;;
4650;SDS011;2338;49.602;8.722;2023-08-31T04:58:07;6.90;;;5.27;;
4650;SDS011;2338;49.602;8.722;2023-08-31T05:00:54;7.23;;;5.80;;
4650;SDS011;2338;49.602;8.722;2023-08-31T05:03:39;7.10;;;5.20;;
4650;SDS011;2338;49.602;8.722;2023-08-31T05:06:25;6.40;;;5.43;;
4650;SDS011;2338;49.602;8.722;2023-08-31T05:09:11;8.90;;;4.90;;
4650;SDS011;2338;49.602;8.722;2023-08-31T05:11:57;9.20;;;5.90;;
4650;SDS011;2338;49.602;8.722;2023-08-31T05:14:42;7.23;;;5.43;;
4650;SDS011;2338;49.602;8.722;2023-08-31T05:17:29;8.80;;;4.30;;
4650;SDS011;2338;49.602;8.722;2023-08-31T05:20:15;9.23;;;5.30;;
4650;SDS011;2338;49.602;8.722;2023-08-31T05:23:01;6.73;;;4.80;;
4650;SDS011;2338;49.602;8.722;2023-08-31T05:25:46;8.03;;;5.50;;
4650;SDS011;2338;49.602;8.722;2023-08-31T05:28:32;6.47;;;5.07;;
4650;SDS011;2338;49.602;8.722;2023-08-31T05:31:18;14.33;;;5.83;;
4650;SDS011;2338;49.602;8.722;2023-08-31T05:34:05;9.07;;;5.43;;
4650;SDS011;2338;49.602;8.722;2023-08-31T05:36:50;6.53;;;4.83;;
4650;SDS011;2338;49.602;8.722;2023-08-31T05:39:36;6.17;;;5.17;;
4650;SDS011;2338;49.602;8.722;2023-08-31T05:42:22;11.23;;;5.27;;
4650;SDS011;2338;49.602;8.722;2023-08-31T05:45:07;9.63;;;5.43;;
4650;SDS011;2338;49.602;8.722;2023-08-31T05:47:54;8.63;;;5.50;;
4650;SDS011;2338;49.602;8.722;2023-08-31T05:50:41;8.33;;;7.00;;
4650;SDS011;2338;49.602;8.722;2023-08-31T05:53:26;6.43;;;4.57;;
4650;SDS011;2338;49.602;8.722;2023-08-31T05:56:12;7.40;;;5.73;;
4650;SDS011;2338;49.602;8.722;2023-08-31T05:58:58;8.50;;;5.13;;
4650;SDS011;2338;49.602;8.722;2023-08-31T06:01:44;6.30;;;5.03;;
4650;SDS011;2338;49.602;8.722;2023-08-31T06:04:29;7.50;;;4.30;;
4650;SDS011;2338;49.602;8.722;2023-08-31T06:07:16;9.07;;;6.27;;
4650;SDS011;2338;49.602;8.722;2023-08-31T06:10:02;9.60;;;5.63;;
4650;SDS011;2338;49.602;8.722;2023-08-31T06:12:48;8.67;;;5.30;;
4650;SDS011;2338;49.602;8.722;2023-08-31T06:15:34;6.77;;;4.43;;
4650;SDS011;2338;49.602;8.722;2023-08-31T06:18:20;6.27;;;4.90;;
4650;SDS011;2338;49.602;8.722;2023-08-31T06:21:06;10.70;;;5.10;;
4650;SDS011;2338;49.602;8.722;2023-08-31T06:23:53;7.37;;;5.00;;
4650;SDS011;2338;49.602;8.722;2023-08-31T06:26:38;10.63;;;5.60;;
4650;SDS011;2338;49.602;8.722;2023-08-31T06:29:24;9.30;;;6.10;;
4650;SDS011;2338;49.602;8.722;2023-08-31T06:32:09;10.53;;;4.70;;
4650;SDS011;2338;49.602;8.722;2023-08-31T06:34:55;9.83;;;5.20;;
4650;SDS011;2338;49.602;8.722;2023-08-31T06:37:41;9.80;;;5.67;;
4650;SDS011;2338;49.602;8.722;2023-08-31T06:40:30;8.40;;;4.97;;
4650;SDS011;2338;49.602;8.722;2023-08-31T06:43:16;6.33;;;4.33;;
4650;SDS011;2338;49.602;8.722;2023-08-31T06:46:02;9.37;;;4.73;;
4650;SDS011;2338;49.602;8.722;2023-08-31T06:48:48;5.40;;;4.57;;
4650;SDS011;2338;49.602;8.722;2023-08-31T06:51:34;6.30;;;4.23;;
4650;SDS011;2338;49.602;8.722;2023-08-31T06:54:20;7.83;;;4.60;;
4650;SDS011;2338;49.602;8.722;2023-08-31T06:57:07;8.13;;;5.27;;
4650;SDS011;2338;49.602;8.722;2023-08-31T06:59:53;10.23;;;4.70;;
4650;SDS011;2338;49.602;8.722;2023-08-31T07:02:39;8.80;;;4.73;;
4650;SDS011;2338;49.602;8.722;2023-08-31T07:05:26;11.23;;;4.93;;
4650;SDS011;2338;49.602;8.722;2023-08-31T07:08:13;12.23;;;4.30;;
4650;SDS011;2338;49.602;8.722;2023-08-31T07:10:58;11.30;;;5.70;;
4650;SDS011;2338;49.602;8.722;2023-08-31T07:13:45;10.70;;;4.43;;
4650;SDS011;2338;49.602;8.722;2023-08-31T07:16:31;6.10;;;4.60;;
4650;SDS011;2338;49.602;8.722;2023-08-31T07:19:17;9.37;;;5.10;;
4650;SDS011;2338;49.602;8.722;2023-08-31T07:22:02;7.30;;;4.70;;
4650;SDS011;2338;49.602;8.722;2023-08-31T07:24:49;6.13;;;4.40;;
4650;SDS011;2338;49.602;8.722;2023-08-31T07:27:35;8.93;;;4.30;;
4650;SDS011;2338;49.602;8.722;2023-08-31T07:30:22;11.07;;;6.10;;
4650;SDS011;2338;49.602;8.722;2023-08-31T07:33:08;6.07;;;4.10;;
4650;SDS011;2338;49.602;8.722;2023-08-31T07:35:54;8.97;;;4.40;;
4650;SDS011;2338;49.602;8.722;2023-08-31T07:38:39;6.83;;;4.80;;
4650;SDS011;2338;49.602;8.722;2023-08-31T07:41:25;6.40;;;4.93;;
4650;SDS011;2338;49.602;8.722;2023-08-31T07:44:10;7.73;;;4.70;;
4650;SDS011;2338;49.602;8.722;2023-08-31T07:46:57;7.13;;;4.87;;
4650;SDS011;2338;49.602;8.722;2023-08-31T07:49:43;6.63;;;5.17;;
4650;SDS011;2338;49.602;8.722;2023-08-31T07:52:29;7.30;;;4.90;;
4650;SDS011;2338;49.602;8.722;2023-08-31T07:55:14;5.70;;;4.50;;
4650;SDS011;2338;49.602;8.722;2023-08-31T07:58:00;12.00;;;4.07;;
4650;SDS011;2338;49.602;8.722;2023-08-31T08:00:46;5.93;;;4.70;;
4650;SDS011;2338;49.602;8.722;2023-08-31T08:03:33;5.00;;;3.80;;
4650;SDS011;2338;49.602;8.722;2023-08-31T08:06:18;6.37;;;4.90;;
4650;SDS011;2338;49.602;8.722;2023-08-31T08:09:04;14.03;;;5.23;;
4650;SDS011;2338;49.602;8.722;2023-08-31T08:11:49;5.60;;;4.43;;
4650;SDS011;2338;49.602;8.722;2023-08-31T08:14:35;9.93;;;4.03;;
4650;SDS011;2338;49.602;8.722;2023-08-31T08:17:21;9.30;;;3.80;;
4650;SDS011;2338;49.602;8.722;2023-08-31T08:20:08;7.03;;;3.87;;
4650;SDS011;2338;49.602;8.722;2023-08-31T08:22:55;6.27;;;3.40;;
4650;SDS011;2338;49.602;8.722;2023-08-31T08:25:42;10.40;;;3.80;;
4650;SDS011;2338;49.602;8.722;2023-08-31T08:28:28;9.10;;;3.50;;
4650;SDS011;2338;49.602;8.722;2023-08-31T08:31:14;9.60;;;4.13;;
4650;SDS011;2338;49.602;8.722;2023-08-31T08:34:00;6.37;;;3.53;;
4650;SDS011;2338;49.602;8.722;2023-08-31T08:36:48;6.00;;;3.47;;
4650;SDS011;2338;49.602;8.722;2023-08-31T08:39:34;5.13;;;3.03;;
4650;SDS011;2338;49.602;8.722;2023-08-31T08:42:19;5.30;;;3.73;;
4650;SDS011;2338;49.602;8.722;2023-08-31T08:45:12;5.17;;;2.90;;
4650;SDS011;2338;49.602;8.722;2023-08-31T08:47:59;5.40;;;3.93;;
4650;SDS011;2338;49.602;8.722;2023-08-31T08:50:45;6.30;;;3.33;;
4650;SDS011;2338;49.602;8.722;2023-08-31T08:53:33;9.37;;;3.53;;
4650;SDS011;2338;49.602;8.722;2023-08-31T08:56:21;6.37;;;3.50;;
4650;SDS011;2338;49.602;8.722;2023-08-31T08:59:07;6.00;;;3.27;;
4650;SDS011;2338;49.602;8.722;2023-08-31T09:01:56;7.47;;;3.40;;
4650;SDS011;2338;49.602;8.722;2023-08-31T09:04:42;5.10;;;2.80;;
4650;SDS011;2338;49.602;8.722;2023-08-31T09:07:29;6.30;;;3.40;;
4650;SDS011;2338;49.602;8.722;2023-08-31T09:10:20;9.00;;;3.20;;
4650;SDS011;2338;49.602;8.722;2023-08-31T09:13:07;9.00;;;3.30;;
4650;SDS011;2338;49.602;8.722;2023-08-31T09:15:54;8.83;;;3.57;;
4650;SDS011;2338;49.602;8.722;2023-08-31T09:18:40;5.73;;;3.17;;
4650;SDS011;2338;49.602;8.722;2023-08-31T09:21:34;5.30;;;2.97;;
4650;SDS011;2338;49.602;8.722;2023-08-31T09:24:20;6.20;;;2.90;;
4650;SDS011;2338;49.602;8.722;2023-08-31T09:27:08;6.57;;;2.87;;
4650;SDS011;2338;49.602;8.722;2023-08-31T09:29:54;5.30;;;2.87;;
4650;SDS011;2338;49.602;8.722;2023-08-31T09:32:40;6.53;;;2.67;;
4650;SDS011;2338;49.602;8.722;2023-08-31T09:35:28;9.33;;;2.80;;
4650;SDS011;2338;49.602;8.722;2023-08-31T09:38:14;12.23;;;2.80;;
4650;SDS011;2338;49.602;8.722;2023-08-31T09:41:03;5.30;;;2.60;;
4650;SDS011;2338;49.602;8.722;2023-08-31T09:43:51;5.07;;;2.50;;
4650;SDS011;2338;49.602;8.722;2023-08-31T09:46:37;5.10;;;2.43;;
4650;SDS011;2338;49.602;8.722;2023-08-31T09:49:23;4.40;;;2.13;;
4650;SDS011;2338;49.602;8.722;2023-08-31T09:52:10;6.37;;;2.73;;
4650;SDS011;2338;49.602;8.722;2023-08-31T09:54:57;9.07;;;2.10;;
4650;SDS011;2338;49.602;8.722;2023-08-31T09:57:45;6.60;;;3.27;;
4650;SDS011;2338;49.602;8.722;2023-08-31T10:00:35;9.63;;;2.93;;
4650;SDS011;2338;49.602;8.722;2023-08-31T10:03:21;7.33;;;2.47;;
4650;SDS011;2338;49.602;8.722;2023-08-31T10:06:08;7.43;;;2.67;;
4650;SDS011;2338;49.602;8.722;2023-08-31T10:08:55;7.43;;;2.50;;
4650;SDS011;2338;49.602;8.722;2023-08-31T10:11:41;7.73;;;2.57;;
4650;SDS011;2338;49.602;8.722;2023-08-31T10:14:27;6.27;;;2.00;;
4650;SDS011;2338;49.602;8.722;2023-08-31T10:17:15;4.77;;;2.37;;
4650;SDS011;2338;49.602;8.722;2023-08-31T10:20:01;14.60;;;2.90;;
4650;SDS011;2338;49.602;8.722;2023-08-31T10:22:47;7.70;;;3.00;;
4650;SDS011;2338;49.602;8.722;2023-08-31T10:28:44;8.40;;;2.20;;
4650;SDS011;2338;49.602;8.722;2023-08-31T10:31:31;8.17;;;2.73;;
4650;SDS011;2338;49.602;8.722;2023-08-31T10:34:19;6.33;;;2.47;;
4650;SDS011;2338;49.602;8.722;2023-08-31T10:37:20;6.37;;;2.60;;
4650;SDS011;2338;49.602;8.722;2023-08-31T10:40:06;4.07;;;1.80;;
4650;SDS011;2338;49.602;8.722;2023-08-31T10:43:14;7.30;;;2.73;;
4650;SDS011;2338;49.602;8.722;2023-08-31T10:46:00;9.40;;;3.10;;
4650;SDS011;2338;49.602;8.722;2023-08-31T10:48:50;5.40;;;2.70;;
4650;SDS011;2338;49.602;8.722;2023-08-31T10:51:38;5.33;;;3.30;;
4650;SDS011;2338;49.602;8.722;2023-08-31T10:54:25;5.67;;;2.60;;
4650;SDS011;2338;49.602;8.722;2023-08-31T10:57:11;7.33;;;3.17;;
4650;SDS011;2338;49.602;8.722;2023-08-31T10:59:59;2.80;;;1.40;;
4650;SDS011;2338;49.602;8.722;2023-08-31T11:02:45;5.47;;;1.97;;
4650;SDS011;2338;49.602;8.722;2023-08-31T11:05:32;3.87;;;2.30;;
4650;SDS011;2338;49.602;8.722;2023-08-31T11:08:21;5.30;;;1.90;;
4650;SDS011;2338;49.602;8.722;2023-08-31T11:11:08;4.03;;;2.10;;
4650;SDS011;2338;49.602;8.722;2023-08-31T11:13:56;4.57;;;2.00;;
4650;SDS011;2338;49.602;8.722;2023-08-31T11:16:42;8.20;;;2.20;;
4650;SDS011;2338;49.602;8.722;2023-08-31T11:19:28;3.83;;;1.80;;
4650;SDS011;2338;49.602;8.722;2023-08-31T11:22:14;5.13;;;2.23;;
4650;SDS011;2338;49.602;8.722;2023-08-31T11:25:01;7.13;;;2.00;;
4650;SDS011;2338;49.602;8.722;2023-08-31T11:27:54;3.20;;;1.83;;
4650;SDS011;2338;49.602;8.722;2023-08-31T11:30:40;4.07;;;1.63;;
4650;SDS011;2338;49.602;8.722;2023-08-31T11:33:31;5.33;;;2.13;;
4650;SDS011;2338;49.602;8.722;2023-08-31T11:36:17;4.07;;;2.37;;
4650;SDS011;2338;49.602;8.722;2023-08-31T11:39:03;7.00;;;2.30;;
4650;SDS011;2338;49.602;8.722;2023-08-31T11:41:51;4.90;;;2.20;;
4650;SDS011;2338;49.602;8.722;2023-08-31T11:44:36;3.20;;;1.80;;
4650;SDS011;2338;49.602;8.722;2023-08-31T11:47:22;5.40;;;1.93;;
4650;SDS011;2338;49.602;8.722;2023-08-31T11:50:09;7.93;;;1.83;;
4650;SDS011;2338;49.602;8.722;2023-08-31T11:52:55;4.47;;;1.93;;
4650;SDS011;2338;49.602;8.722;2023-08-31T11:55:48;3.33;;;1.97;;
4650;SDS011;2338;49.602;8.722;2023-08-31T11:58:41;4.73;;;1.80;;
4650;SDS011;2338;49.602;8.722;2023-08-31T12:01:29;3.37;;;1.70;;
4650;SDS011;2338;49.602;8.722;2023-08-31T12:04:15;13.63;;;2.80;;
4650;SDS011;2338;49.602;8.722;2023-08-31T12:07:04;5.17;;;2.03;;
4650;SDS011;2338;49.602;8.722;2023-08-31T12:09:50;8.17;;;1.83;;
4650;SDS011;2338;49.602;8.722;2023-08-31T12:12:36;8.70;;;3.50;;
4650;SDS011;2338;49.602;8.722;2023-08-31T12:15:23;4.40;;;1.70;;
4650;SDS011;2338;49.602;8.722;2023-08-31T12:18:15;11.63;;;2.53;;
4650;SDS011;2338;49.602;8.722;2023-08-31T12:21:01;5.50;;;2.00;;
4650;SDS011;2338;49.602;8.722;2023-08-31T12:23:47;8.50;;;1.83;;
4650;SDS011;2338;49.602;8.722;2023-08-31T12:26:34;6.87;;;2.47;;
4650;SDS011;2338;49.602;8.722;2023-08-31T12:29:20;7.13;;;2.20;;
4650;SDS011;2338;49.602;8.722;2023-08-31T12:32:07;4.40;;;2.30;;
4650;SDS011;2338;49.602;8.722;2023-08-31T12:34:53;4.03;;;2.10;;
4650;SDS011;2338;49.602;8.722;2023-08-31T12:37:38;12.53;;;2.73;;
4650;SDS011;2338;49.602;8.722;2023-08-31T12:40:24;6.33;;;2.13;;
4650;SDS011;2338;49.602;8.722;2023-08-31T12:43:10;9.20;;;2.77;;
4650;SDS011;2338;49.602;8.722;2023-08-31T12:45:56;7.60;;;2.80;;
4650;SDS011;2338;49.602;8.722;2023-08-31T12:48:43;7.77;;;2.53;;
4650;SDS011;2338;49.602;8.722;2023-08-31T12:51:28;4.37;;;2.20;;
4650;SDS011;2338;49.602;8.722;2023-08-31T12:54:14;6.73;;;2.30;;
4650;SDS011;2338;49.602;8.722;2023-08-31T12:57:00;9.23;;;2.17;;
4650;SDS011;2338;49.602;8.722;2023-08-31T12:59:46;7.10;;;2.63;;
4650;SDS011;2338;49.602;8.722;2023-08-31T13:02:32;8.40;;;2.40;;
4650;SDS011;2338;49.602;8.722;2023-08-31T13:05:19;7.13;;;2.20;;
4650;SDS011;2338;49.602;8.722;2023-08-31T13:08:05;10.47;;;2.67;;
4650;SDS011;2338;49.602;8.722;2023-08-31T13:10:51;6.10;;;2.27;;
4650;SDS011;2338;49.602;8.722;2023-08-31T13:13:38;4.90;;;1.97;;
4650;SDS011;2338;49.602;8.722;2023-08-31T13:16:23;7.73;;;3.00;;
4650;SDS011;2338;49.602;8.722;2023-08-31T13:19:09;5.37;;;2.20;;
4650;SDS011;2338;49.602;8.722;2023-08-31T13:21:56;8.10;;;2.90;;
4650;SDS011;2338;49.602;8.722;2023-08-31T13:24:42;7.50;;;2.70;;
4650;SDS011;2338;49.602;8.722;2023-08-31T13:27:27;6.87;;;2.53;;
4650;SDS011;2338;49.602;8.722;2023-08-31T13:30:13;7.57;;;2.63;;
4650;SDS011;2338;49.602;8.722;2023-08-31T13:32:59;8.37;;;2.83;;
4650;SDS011;2338;49.602;8.722;2023-08-31T13:35:45;6.40;;;2.53;;
4650;SDS011;2338;49.602;8.722;2023-08-31T13:38:32;8.80;;;2.50;;
4650;SDS011;2338;49.602;8.722;2023-08-31T13:41:18;6.57;;;3.30;;
4650;SDS011;2338;49.602;8.722;2023-08-31T13:44:04;8.20;;;2.50;;
4650;SDS011;2338;49.602;8.722;2023-08-31T13:46:49;4.73;;;2.13;;
4650;SDS011;2338;49.602;8.722;2023-08-31T13:49:35;9.33;;;3.00;;
4650;SDS011;2338;49.602;8.722;2023-08-31T13:52:21;7.40;;;2.27;;
4650;SDS011;2338;49.602;8.722;2023-08-31T13:55:08;7.70;;;3.10;;
4650;SDS011;2338;49.602;8.722;2023-08-31T13:57:54;6.93;;;2.43;;
4650;SDS011;2338;49.602;8.722;2023-08-31T14:00:39;14.53;;;3.53;;
4650;SDS011;2338;49.602;8.722;2023-08-31T14:03:25;9.00;;;2.60;;
4650;SDS011;2338;49.602;8.722;2023-08-31T14:06:11;7.33;;;2.93;;
4650;SDS011;2338;49.602;8.722;2023-08-31T14:08:58;6.13;;;2.27;;
4650;SDS011;2338;49.602;8.722;2023-08-31T14:11:46;10.83;;;3.00;;
4650;SDS011;2338;49.602;8.722;2023-08-31T14:14:31;4.93;;;2.53;;
4650;SDS011;2338;49.602;8.722;2023-08-31T14:17:17;7.83;;;2.70;;
4650;SDS011;2338;49.602;8.722;2023-08-31T14:20:03;8.00;;;2.40;;
4650;SDS011;2338;49.602;8.722;2023-08-31T14:22:52;8.73;;;2.40;;
4650;SDS011;2338;49.602;8.722;2023-08-31T14:25:38;11.33;;;3.07;;
4650;SDS011;2338;49.602;8.722;2023-08-31T14:28:25;4.13;;;2.43;;
4650;SDS011;2338;49.602;8.722;2023-08-31T14:31:10;5.07;;;2.50;;
4650;SDS011;2338;49.602;8.722;2023-08-31T14:33:56;11.03;;;2.77;;
4650;SDS011;2338;49.602;8.722;2023-08-31T14:36:42;9.90;;;2.37;;
4650;SDS011;2338;49.602;8.722;2023-08-31T14:39:27;7.43;;;2.40;;
4650;SDS011;2338;49.602;8.722;2023-08-31T14:42:14;7.83;;;2.63;;
4650;SDS011;2338;49.602;8.722;2023-08-31T14:45:02;7.53;;;2.57;;
4650;SDS011;2338;49.602;8.722;2023-08-31T14:47:48;10.87;;;2.50;;
4650;SDS011;2338;49.602;8.722;2023-08-31T14:50:34;10.33;;;2.47;;
4650;SDS011;2338;49.602;8.722;2023-08-31T14:53:20;7.03;;;2.80;;
4650;SDS011;2338;49.602;8.722;2023-08-31T14:56:07;7.20;;;2.80;;
4650;SDS011;2338;49.602;8.722;2023-08-31T14:58:52;6.10;;;2.67;;
4650;SDS011;2338;49.602;8.722;2023-08-31T15:01:39;7.40;;;2.67;;
4650;SDS011;2338;49.602;8.722;2023-08-31T15:04:25;11.33;;;2.40;;
4650;SDS011;2338;49.602;8.722;2023-08-31T15:07:11;6.73;;;3.53;;
4650;SDS011;2338;49.602;8.722;2023-08-31T15:09:56;6.97;;;2.10;;
4650;SDS011;2338;49.602;8.722;2023-08-31T15:12:43;9.40;;;2.90;;
4650;SDS011;2338;49.602;8.722;2023-08-31T15:15:29;13.43;;;3.27;;
4650;SDS011;2338;49.602;8.722;2023-08-31T15:18:16;7.57;;;2.43;;
4650;SDS011;2338;49.602;8.722;2023-08-31T15:21:02;5.27;;;2.50;;
4650;SDS011;2338;49.602;8.722;2023-08-31T15:23:47;7.80;;;2.97;;
4650;SDS011;2338;49.602;8.722;2023-08-31T15:26:34;6.03;;;2.70;;
4650;SDS011;2338;49.602;8.722;2023-08-31T15:29:20;7.13;;;2.70;;
4650;SDS011;2338;49.602;8.722;2023-08-31T15:32:06;8.83;;;2.53;;
4650;SDS011;2338;49.602;8.722;2023-08-31T15:34:54;8.53;;;2.80;;
4650;SDS011;2338;49.602;8.722;2023-08-31T15:37:39;7.50;;;2.50;;
4650;SDS011;2338;49.602;8.722;2023-08-31T15:40:25;5.30;;;2.40;;
4650;SDS011;2338;49.602;8.722;2023-08-31T15:43:11;7.93;;;2.60;;
4650;SDS011;2338;49.602;8.722;2023-08-31T15:45:57;7.60;;;3.23;;
4650;SDS011;2338;49.602;8.722;2023-08-31T15:48:43;5.57;;;2.03;;
4650;SDS011;2338;49.602;8.722;2023-08-31T15:51:30;6.60;;;3.07;;
4650;SDS011;2338;49.602;8.722;2023-08-31T15:54:17;4.70;;;2.87;;
4650;SDS011;2338;49.602;8.722;2023-08-31T15:57:03;8.93;;;2.90;;
4650;SDS011;2338;49.602;8.722;2023-08-31T15:59:49;9.97;;;3.27;;
4650;SDS011;2338;49.602;8.722;2023-08-31T16:02:35;8.30;;;3.10;;
4650;SDS011;2338;49.602;8.722;2023-08-31T16:05:20;7.77;;;2.93;;
4650;SDS011;2338;49.602;8.722;2023-08-31T16:08:07;5.63;;;2.60;;
4650;SDS011;2338;49.602;8.722;2023-08-31T16:10:53;6.10;;;3.07;;
4650;SDS011;2338;49.602;8.722;2023-08-31T16:13:38;14.93;;;2.70;;
4650;SDS011;2338;49.602;8.722;2023-08-31T16:16:25;5.70;;;2.20;;
4650;SDS011;2338;49.602;8.722;2023-08-31T16:19:11;6.53;;;3.50;;
4650;SDS011;2338;49.602;8.722;2023-08-31T16:21:56;6.03;;;2.70;;
4650;SDS011;2338;49.602;8.722;2023-08-31T16:24:44;10.93;;;3.13;;
4650;SDS011;2338;49.602;8.722;2023-08-31T16:27:30;9.33;;;3.13;;
4650;SDS011;2338;49.602;8.722;2023-08-31T16:30:16;9.00;;;2.83;;
4650;SDS011;2338;49.602;8.722;2023-08-31T16:33:01;8.53;;;2.73;;
4650;SDS011;2338;49.602;8.722;2023-08-31T16:35:47;6.77;;;2.37;;
4650;SDS011;2338;49.602;8.722;2023-08-31T16:38:34;7.03;;;3.07;;
4650;SDS011;2338;49.602;8.722;2023-08-31T16:41:21;7.50;;;2.33;;
4650;SDS011;2338;49.602;8.722;2023-08-31T16:44:07;6.13;;;2.53;;
4650;SDS011;2338;49.602;8.722;2023-08-31T16:46:53;8.63;;;2.70;;
4650;SDS011;2338;49.602;8.722;2023-08-31T16:49:38;8.63;;;2.70;;
4650;SDS011;2338;49.602;8.722;2023-08-31T16:52:26;7.10;;;3.37;;
4650;SDS011;2338;49.602;8.722;2023-08-31T16:55:11;13.23;;;3.40;;
4650;SDS011;2338;49.602;8.722;2023-08-31T16:57:58;7.00;;;2.57;;
4650;SDS011;2338;49.602;8.722;2023-08-31T17:00:44;6.93;;;2.97;;
4650;SDS011;2338;49.602;8.722;2023-08-31T17:03:29;9.50;;;3.07;;
4650;SDS011;2338;49.602;8.722;2023-08-31T17:06:15;7.07;;;2.73;;
4650;SDS011;2338;49.602;8.722;2023-08-31T17:09:01;9.80;;;3.00;;
4650;SDS011;2338;49.602;8.722;2023-08-31T17:11:47;10.77;;;2.77;;
4650;SDS011;2338;49.602;8.722;2023-08-31T17:14:34;5.13;;;2.60;;